sensor_id;sensor_type;location;lat;lon;timestamp;temperature;humidity
28297;DHT22;62078;49.366;8.172;2022-10-17T00:01:15;20.30;77.10
28297;DHT22;62078;49.366;8.172;2022-10-17T00:03:41;20.30;77.10
28297;DHT22;62078;49.366;8.172;2022-10-17T00:06:10;20.20;76.90
28297;DHT22;62078;49.366;8.172;2022-10-17T00:08:37;20.30;77.10
28297;DHT22;62078;49.366;8.172;2022-10-17T00:11:06;20.30;77.00
28297;DHT22;62078;49.366;8.172;2022-10-17T00:13:34;20.20;77.00
28297;DHT22;62078;49.366;8.172;2022-10-17T00:16:00;20.30;77.10
28297;DHT22;62078;49.366;8.172;2022-10-17T00:18:26;20.20;77.00
28297;DHT22;62078;49.366;8.172;2022-10-17T00:20:52;20.30;77.00
28297;DHT22;62078;49.366;8.172;2022-10-17T00:23:18;20.30;77.10
28297;DHT22;62078;49.366;8.172;2022-10-17T00:25:44;20.20;76.90
28297;DHT22;62078;49.366;8.172;2022-10-17T00:28:11;20.30;77.00
28297;DHT22;62078;49.366;8.172;2022-10-17T00:30:38;20.20;76.90
28297;DHT22;62078;49.366;8.172;2022-10-17T00:33:04;20.20;76.90
28297;DHT22;62078;49.366;8.172;2022-10-17T00:35:31;20.30;76.90
28297;DHT22;62078;49.366;8.172;2022-10-17T00:37:57;20.30;76.90
28297;DHT22;62078;49.366;8.172;2022-10-17T00:40:23;20.30;76.20
28297;DHT22;62078;49.366;8.172;2022-10-17T00:42:49;20.30;77.00
28297;DHT22;62078;49.366;8.172;2022-10-17T00:45:29;20.30;76.90
28297;DHT22;62078;49.366;8.172;2022-10-17T00:48:02;20.30;77.00
28297;DHT22;62078;49.366;8.172;2022-10-17T00:50:30;20.30;76.90
28297;DHT22;62078;49.366;8.172;2022-10-17T00:53:00;20.30;76.90
28297;DHT22;62078;49.366;8.172;2022-10-17T00:55:30;20.30;76.90
28297;DHT22;62078;49.366;8.172;2022-10-17T00:57:59;20.30;76.90
28297;DHT22;62078;49.366;8.172;2022-10-17T01:00:27;20.30;76.90
28297;DHT22;62078;49.366;8.172;2022-10-17T01:02:53;20.30;76.80
28297;DHT22;62078;49.366;8.172;2022-10-17T01:05:19;20.30;76.80
28297;DHT22;62078;49.366;8.172;2022-10-17T01:07:46;20.30;76.70
28297;DHT22;62078;49.366;8.172;2022-10-17T01:10:13;20.30;76.80
28297;DHT22;62078;49.366;8.172;2022-10-17T01:16:04;20.30;76.80
28297;DHT22;62078;49.366;8.172;2022-10-17T01:19:00;20.30;76.70
28297;DHT22;62078;49.366;8.172;2022-10-17T01:24:48;20.30;76.80
28297;DHT22;62078;49.366;8.172;2022-10-17T01:33:11;20.30;76.80
28297;DHT22;62078;49.366;8.172;2022-10-17T01:35:51;20.30;76.70
28297;DHT22;62078;49.366;8.172;2022-10-17T01:38:34;20.30;76.70
28297;DHT22;62078;49.366;8.172;2022-10-17T01:41:06;20.30;76.80
28297;DHT22;62078;49.366;8.172;2022-10-17T01:43:48;20.30;76.70
28297;DHT22;62078;49.366;8.172;2022-10-17T01:46:22;20.40;76.80
28297;DHT22;62078;49.366;8.172;2022-10-17T01:48:51;20.30;76.80
28297;DHT22;62078;49.366;8.172;2022-10-17T01:51:23;20.30;76.70
28297;DHT22;62078;49.366;8.172;2022-10-17T01:53:58;20.30;76.60
28297;DHT22;62078;49.366;8.172;2022-10-17T01:56:26;20.30;76.80
28297;DHT22;62078;49.366;8.172;2022-10-17T01:59:07;20.30;76.70
28297;DHT22;62078;49.366;8.172;2022-10-17T02:01:36;20.30;76.70
28297;DHT22;62078;49.366;8.172;2022-10-17T02:04:03;20.30;76.70
28297;DHT22;62078;49.366;8.172;2022-10-17T02:06:34;20.30;76.60
28297;DHT22;62078;49.366;8.172;2022-10-17T02:09:00;20.40;76.80
28297;DHT22;62078;49.366;8.172;2022-10-17T02:11:26;20.40;76.70
28297;DHT22;62078;49.366;8.172;2022-10-17T02:14:03;20.40;76.80
28297;DHT22;62078;49.366;8.172;2022-10-17T02:17:00;20.40;76.70
28297;DHT22;62078;49.366;8.172;2022-10-17T02:22:50;20.30;76.50
28297;DHT22;62078;49.366;8.172;2022-10-17T02:30:35;20.40;76.60
28297;DHT22;62078;49.366;8.172;2022-10-17T02:33:08;20.40;76.70
28297;DHT22;62078;49.366;8.172;2022-10-17T02:35:39;20.40;76.60
28297;DHT22;62078;49.366;8.172;2022-10-17T02:38:07;20.40;76.60
28297;DHT22;62078;49.366;8.172;2022-10-17T02:40:35;20.40;76.60
28297;DHT22;62078;49.366;8.172;2022-10-17T02:43:01;20.40;76.60
28297;DHT22;62078;49.366;8.172;2022-10-17T02:45:28;20.30;76.60
28297;DHT22;62078;49.366;8.172;2022-10-17T02:48:08;20.40;76.60
28297;DHT22;62078;49.366;8.172;2022-10-17T02:50:46;20.30;76.50
28297;DHT22;62078;49.366;8.172;2022-10-17T02:53:19;20.40;76.70
28297;DHT22;62078;49.366;8.172;2022-10-17T02:55:54;20.40;76.60
28297;DHT22;62078;49.366;8.172;2022-10-17T02:58:26;20.30;76.60
28297;DHT22;62078;49.366;8.172;2022-10-17T03:00:55;20.40;76.70
28297;DHT22;62078;49.366;8.172;2022-10-17T03:03:29;20.40;76.70
28297;DHT22;62078;49.366;8.172;2022-10-17T03:05:55;20.40;76.60
28297;DHT22;62078;49.366;8.172;2022-10-17T03:08:21;20.30;76.60
28297;DHT22;62078;49.366;8.172;2022-10-17T03:10:48;20.30;76.60
28297;DHT22;62078;49.366;8.172;2022-10-17T03:13:14;20.30;76.60
28297;DHT22;62078;49.366;8.172;2022-10-17T03:15:40;20.40;76.70
28297;DHT22;62078;49.366;8.172;2022-10-17T03:18:06;20.30;76.60
28297;DHT22;62078;49.366;8.172;2022-10-17T03:20:32;20.30;76.70
28297;DHT22;62078;49.366;8.172;2022-10-17T03:22:58;20.30;76.60
28297;DHT22;62078;49.366;8.172;2022-10-17T03:25:24;20.30;76.80
28297;DHT22;62078;49.366;8.172;2022-10-17T03:27:51;20.30;76.60
28297;DHT22;62078;49.366;8.172;2022-10-17T03:30:17;20.30;76.60
28297;DHT22;62078;49.366;8.172;2022-10-17T03:32:43;20.30;76.60
28297;DHT22;62078;49.366;8.172;2022-10-17T03:35:09;20.30;76.60
28297;DHT22;62078;49.366;8.172;2022-10-17T03:37:35;20.30;76.60
28297;DHT22;62078;49.366;8.172;2022-10-17T03:40:01;20.30;76.60
28297;DHT22;62078;49.366;8.172;2022-10-17T03:42:27;20.30;76.60
28297;DHT22;62078;49.366;8.172;2022-10-17T03:44:53;20.30;76.60
28297;DHT22;62078;49.366;8.172;2022-10-17T03:47:19;20.30;76.60
28297;DHT22;62078;49.366;8.172;2022-10-17T03:49:45;20.30;76.60
28297;DHT22;62078;49.366;8.172;2022-10-17T03:52:12;20.30;76.60
28297;DHT22;62078;49.366;8.172;2022-10-17T03:54:38;20.30;76.50
28297;DHT22;62078;49.366;8.172;2022-10-17T03:57:04;20.30;77.30
28297;DHT22;62078;49.366;8.172;2022-10-17T03:59:30;20.30;76.60
28297;DHT22;62078;49.366;8.172;2022-10-17T04:01:56;20.30;76.50
28297;DHT22;62078;49.366;8.172;2022-10-17T04:04:22;20.30;76.60
28297;DHT22;62078;49.366;8.172;2022-10-17T04:06:48;20.30;76.60
28297;DHT22;62078;49.366;8.172;2022-10-17T04:09:14;20.30;76.50
28297;DHT22;62078;49.366;8.172;2022-10-17T04:11:40;20.30;76.50
28297;DHT22;62078;49.366;8.172;2022-10-17T04:14:06;20.30;76.50
28297;DHT22;62078;49.366;8.172;2022-10-17T04:16:32;20.30;76.50
28297;DHT22;62078;49.366;8.172;2022-10-17T04:18:58;20.30;76.50
28297;DHT22;62078;49.366;8.172;2022-10-17T04:21:26;20.30;76.50
28297;DHT22;62078;49.366;8.172;2022-10-17T04:23:54;20.30;76.40
28297;DHT22;62078;49.366;8.172;2022-10-17T04:26:20;20.30;76.50
28297;DHT22;62078;49.366;8.172;2022-10-17T04:28:46;20.30;76.60
28297;DHT22;62078;49.366;8.172;2022-10-17T04:31:13;20.30;76.60
28297;DHT22;62078;49.366;8.172;2022-10-17T04:33:40;20.30;76.60
28297;DHT22;62078;49.366;8.172;2022-10-17T04:36:11;20.30;76.50
28297;DHT22;62078;49.366;8.172;2022-10-17T04:38:38;20.20;76.60
28297;DHT22;62078;49.366;8.172;2022-10-17T04:41:06;20.30;76.50
28297;DHT22;62078;49.366;8.172;2022-10-17T04:43:35;20.20;76.40
28297;DHT22;62078;49.366;8.172;2022-10-17T04:46:03;20.20;76.40
28297;DHT22;62078;49.366;8.172;2022-10-17T04:48:30;20.20;77.40
28297;DHT22;62078;49.366;8.172;2022-10-17T04:51:00;20.30;75.90
28297;DHT22;62078;49.366;8.172;2022-10-17T04:53:27;20.30;76.40
28297;DHT22;62078;49.366;8.172;2022-10-17T04:55:53;20.30;76.70
28297;DHT22;62078;49.366;8.172;2022-10-17T04:58:19;20.30;77.80
28297;DHT22;62078;49.366;8.172;2022-10-17T05:00:46;20.20;77.40
28297;DHT22;62078;49.366;8.172;2022-10-17T05:03:11;20.20;77.50
28297;DHT22;62078;49.366;8.172;2022-10-17T05:05:38;20.20;77.50
28297;DHT22;62078;49.366;8.172;2022-10-17T05:08:06;20.20;77.60
28297;DHT22;62078;49.366;8.172;2022-10-17T05:10:41;20.20;78.20
28297;DHT22;62078;49.366;8.172;2022-10-17T05:13:07;20.20;77.70
28297;DHT22;62078;49.366;8.172;2022-10-17T05:15:34;20.20;77.80
28297;DHT22;62078;49.366;8.172;2022-10-17T05:18:00;20.20;77.80
28297;DHT22;62078;49.366;8.172;2022-10-17T05:20:26;20.20;77.70
28297;DHT22;62078;49.366;8.172;2022-10-17T05:22:53;20.20;77.70
28297;DHT22;62078;49.366;8.172;2022-10-17T05:25:19;20.20;77.80
28297;DHT22;62078;49.366;8.172;2022-10-17T05:27:45;20.10;77.90
28297;DHT22;62078;49.366;8.172;2022-10-17T05:30:11;20.10;77.80
28297;DHT22;62078;49.366;8.172;2022-10-17T05:32:37;20.20;77.70
28297;DHT22;62078;49.366;8.172;2022-10-17T05:35:03;20.20;77.70
28297;DHT22;62078;49.366;8.172;2022-10-17T05:37:30;20.10;77.60
28297;DHT22;62078;49.366;8.172;2022-10-17T05:39:56;20.10;77.60
28297;DHT22;62078;49.366;8.172;2022-10-17T05:42:22;20.10;77.70
28297;DHT22;62078;49.366;8.172;2022-10-17T05:44:48;20.10;77.60
28297;DHT22;62078;49.366;8.172;2022-10-17T05:47:14;20.10;77.80
28297;DHT22;62078;49.366;8.172;2022-10-17T05:49:40;20.10;77.70
28297;DHT22;62078;49.366;8.172;2022-10-17T05:52:06;20.10;77.70
28297;DHT22;62078;49.366;8.172;2022-10-17T05:54:33;20.10;77.90
28297;DHT22;62078;49.366;8.172;2022-10-17T05:56:59;20.10;77.80
28297;DHT22;62078;49.366;8.172;2022-10-17T05:59:25;20.10;77.80
28297;DHT22;62078;49.366;8.172;2022-10-17T06:01:52;20.10;78.00
28297;DHT22;62078;49.366;8.172;2022-10-17T06:04:18;20.10;77.80
28297;DHT22;62078;49.366;8.172;2022-10-17T06:06:44;20.10;77.60
28297;DHT22;62078;49.366;8.172;2022-10-17T06:09:10;20.10;77.30
28297;DHT22;62078;49.366;8.172;2022-10-17T06:11:36;20.10;77.30
28297;DHT22;62078;49.366;8.172;2022-10-17T06:14:02;20.10;77.40
28297;DHT22;62078;49.366;8.172;2022-10-17T06:16:28;20.10;77.30
28297;DHT22;62078;49.366;8.172;2022-10-17T06:18:54;20.10;77.30
28297;DHT22;62078;49.366;8.172;2022-10-17T06:21:24;20.10;77.20
28297;DHT22;62078;49.366;8.172;2022-10-17T06:23:50;20.10;77.30
28297;DHT22;62078;49.366;8.172;2022-10-17T06:26:17;20.10;77.20
28297;DHT22;62078;49.366;8.172;2022-10-17T06:28:43;20.10;77.10
28297;DHT22;62078;49.366;8.172;2022-10-17T06:31:12;20.10;77.70
28297;DHT22;62078;49.366;8.172;2022-10-17T06:33:38;20.10;76.90
28297;DHT22;62078;49.366;8.172;2022-10-17T06:36:06;20.10;76.90
28297;DHT22;62078;49.366;8.172;2022-10-17T06:38:33;20.10;76.50
28297;DHT22;62078;49.366;8.172;2022-10-17T06:41:11;20.20;75.90
28297;DHT22;62078;49.366;8.172;2022-10-17T06:43:40;20.20;76.20
28297;DHT22;62078;49.366;8.172;2022-10-17T06:46:07;20.30;76.30
28297;DHT22;62078;49.366;8.172;2022-10-17T06:48:34;20.30;76.80
28297;DHT22;62078;49.366;8.172;2022-10-17T06:51:01;20.30;77.00
28297;DHT22;62078;49.366;8.172;2022-10-17T06:53:32;20.30;77.10
28297;DHT22;62078;49.366;8.172;2022-10-17T06:55:59;20.40;77.20
28297;DHT22;62078;49.366;8.172;2022-10-17T06:58:36;20.40;77.70
28297;DHT22;62078;49.366;8.172;2022-10-17T07:01:08;20.40;77.40
28297;DHT22;62078;49.366;8.172;2022-10-17T07:03:34;20.40;77.30
28297;DHT22;62078;49.366;8.172;2022-10-17T07:06:01;20.40;77.40
28297;DHT22;62078;49.366;8.172;2022-10-17T07:08:27;20.40;76.60
28297;DHT22;62078;49.366;8.172;2022-10-17T07:10:53;20.50;76.40
28297;DHT22;62078;49.366;8.172;2022-10-17T07:13:20;20.50;76.40
28297;DHT22;62078;49.366;8.172;2022-10-17T07:15:46;20.60;76.40
28297;DHT22;62078;49.366;8.172;2022-10-17T07:18:12;20.50;72.90
28297;DHT22;62078;49.366;8.172;2022-10-17T07:20:38;20.60;74.70
28297;DHT22;62078;49.366;8.172;2022-10-17T07:23:05;20.80;74.50
28297;DHT22;62078;49.366;8.172;2022-10-17T07:25:31;20.90;74.20
28297;DHT22;62078;49.366;8.172;2022-10-17T07:27:57;20.90;73.80
28297;DHT22;62078;49.366;8.172;2022-10-17T07:30:23;21.00;73.30
28297;DHT22;62078;49.366;8.172;2022-10-17T07:32:52;21.00;73.90
28297;DHT22;62078;49.366;8.172;2022-10-17T07:35:19;21.00;74.60
